sensor_id;sensor_type;location;lat;lon;timestamp;P1;durP1;ratioP1;P2;durP2;ratioP2
8580;SDS011;4328;48.622;9.230;2023-03-14T00:01:14;0.90;;;0.90;;
8580;SDS011;4328;48.622;9.230;2023-03-14T00:03:41;1.23;;;0.70;;
8580;SDS011;4328;48.622;9.230;2023-03-14T00:06:08;1.20;;;0.80;;
8580;SDS011;4328;48.622;9.230;2023-03-14T00:08:35;1.63;;;0.90;;
8580;SDS011;4328;48.622;9.230;2023-03-14T00:11:05;1.30;;;0.80;;
8580;SDS011;4328;48.622;9.230;2023-03-14T00:13:31;1.97;;;0.60;;
8580;SDS011;4328;48.622;9.230;2023-03-14T00:16:02;1.23;;;0.50;;
8580;SDS011;4328;48.622;9.230;2023-03-14T00:18:29;0.70;;;0.70;;
8580;SDS011;4328;48.622;9.230;2023-03-14T00:20:57;1.10;;;0.50;;
8580;SDS011;4328;48.622;9.230;2023-03-14T00:23:24;1.27;;;0.63;;
8580;SDS011;4328;48.622;9.230;2023-03-14T00:25:50;0.70;;;0.70;;
8580;SDS011;4328;48.622;9.230;2023-03-14T00:28:16;0.50;;;0.50;;
8580;SDS011;4328;48.622;9.230;2023-03-14T00:30:43;0.50;;;0.50;;
8580;SDS011;4328;48.622;9.230;2023-03-14T00:33:11;0.60;;;0.60;;
8580;SDS011;4328;48.622;9.230;2023-03-14T00:35:38;0.50;;;0.50;;
8580;SDS011;4328;48.622;9.230;2023-03-14T00:38:04;0.80;;;0.63;;
8580;SDS011;4328;48.622;9.230;2023-03-14T00:40:30;0.77;;;0.77;;
8580;SDS011;4328;48.622;9.230;2023-03-14T00:42:57;1.20;;;0.80;;
8580;SDS011;4328;48.622;9.230;2023-03-14T00:45:23;1.57;;;0.70;;
8580;SDS011;4328;48.622;9.230;2023-03-14T00:47:50;0.70;;;0.70;;
8580;SDS011;4328;48.622;9.230;2023-03-14T00:50:17;0.93;;;0.80;;
8580;SDS011;4328;48.622;9.230;2023-03-14T00:52:44;1.07;;;0.80;;
8580;SDS011;4328;48.622;9.230;2023-03-14T00:55:11;0.60;;;0.60;;
8580;SDS011;4328;48.622;9.230;2023-03-14T00:57:37;0.70;;;0.70;;
8580;SDS011;4328;48.622;9.230;2023-03-14T01:00:04;0.77;;;0.77;;
8580;SDS011;4328;48.622;9.230;2023-03-14T01:02:33;1.47;;;0.70;;
8580;SDS011;4328;48.622;9.230;2023-03-14T01:04:59;1.03;;;0.90;;
8580;SDS011;4328;48.622;9.230;2023-03-14T01:07:27;3.07;;;0.90;;
8580;SDS011;4328;48.622;9.230;2023-03-14T01:09:53;1.43;;;0.90;;
8580;SDS011;4328;48.622;9.230;2023-03-14T01:12:20;0.87;;;0.87;;
8580;SDS011;4328;48.622;9.230;2023-03-14T01:14:46;0.70;;;0.70;;
8580;SDS011;4328;48.622;9.230;2023-03-14T01:17:13;1.53;;;1.07;;
8580;SDS011;4328;48.622;9.230;2023-03-14T01:19:39;1.00;;;0.90;;
8580;SDS011;4328;48.622;9.230;2023-03-14T01:22:05;1.17;;;0.90;;
8580;SDS011;4328;48.622;9.230;2023-03-14T01:24:33;2.10;;;1.10;;
8580;SDS011;4328;48.622;9.230;2023-03-14T01:26:59;1.63;;;0.90;;
8580;SDS011;4328;48.622;9.230;2023-03-14T01:29:26;1.10;;;1.00;;
8580;SDS011;4328;48.622;9.230;2023-03-14T01:31:52;1.00;;;1.00;;
8580;SDS011;4328;48.622;9.230;2023-03-14T01:34:19;5.47;;;1.30;;
8580;SDS011;4328;48.622;9.230;2023-03-14T01:36:45;1.40;;;1.30;;
8580;SDS011;4328;48.622;9.230;2023-03-14T01:39:11;20.57;;;2.30;;
8580;SDS011;4328;48.622;9.230;2023-03-14T01:41:39;1.53;;;1.20;;
8580;SDS011;4328;48.622;9.230;2023-03-14T01:44:08;1.27;;;1.20;;
8580;SDS011;4328;48.622;9.230;2023-03-14T01:46:36;0.70;;;0.70;;
8580;SDS011;4328;48.622;9.230;2023-03-14T01:49:04;0.67;;;0.60;;
8580;SDS011;4328;48.622;9.230;2023-03-14T01:51:33;1.00;;;0.50;;
8580;SDS011;4328;48.622;9.230;2023-03-14T01:54:02;1.10;;;0.90;;
8580;SDS011;4328;48.622;9.230;2023-03-14T01:56:31;0.73;;;0.67;;
8580;SDS011;4328;48.622;9.230;2023-03-14T01:58:59;1.43;;;0.60;;
8580;SDS011;4328;48.622;9.230;2023-03-14T02:01:27;1.10;;;0.87;;
8580;SDS011;4328;48.622;9.230;2023-03-14T02:03:55;0.50;;;0.50;;
8580;SDS011;4328;48.622;9.230;2023-03-14T02:06:23;0.60;;;0.50;;
8580;SDS011;4328;48.622;9.230;2023-03-14T02:08:50;1.10;;;0.60;;
8580;SDS011;4328;48.622;9.230;2023-03-14T02:11:17;1.80;;;0.60;;
8580;SDS011;4328;48.622;9.230;2023-03-14T02:13:43;2.30;;;0.70;;
8580;SDS011;4328;48.622;9.230;2023-03-14T02:16:11;0.50;;;0.50;;
8580;SDS011;4328;48.622;9.230;2023-03-14T02:18:38;1.07;;;0.70;;
8580;SDS011;4328;48.622;9.230;2023-03-14T02:21:06;0.70;;;0.40;;
8580;SDS011;4328;48.622;9.230;2023-03-14T02:23:36;2.10;;;2.00;;
8580;SDS011;4328;48.622;9.230;2023-03-14T02:26:08;0.47;;;0.47;;
8580;SDS011;4328;48.622;9.230;2023-03-14T02:28:36;0.30;;;0.30;;
8580;SDS011;4328;48.622;9.230;2023-03-14T02:31:03;0.40;;;0.40;;
8580;SDS011;4328;48.622;9.230;2023-03-14T02:33:29;0.40;;;0.40;;
8580;SDS011;4328;48.622;9.230;2023-03-14T02:35:58;0.50;;;0.50;;
8580;SDS011;4328;48.622;9.230;2023-03-14T02:38:26;0.40;;;0.40;;
8580;SDS011;4328;48.622;9.230;2023-03-14T02:40:55;0.47;;;0.47;;
8580;SDS011;4328;48.622;9.230;2023-03-14T02:43:21;0.50;;;0.50;;
8580;SDS011;4328;48.622;9.230;2023-03-14T02:45:49;0.43;;;0.43;;
8580;SDS011;4328;48.622;9.230;2023-03-14T02:48:17;0.33;;;0.33;;
8580;SDS011;4328;48.622;9.230;2023-03-14T02:50:45;1.30;;;0.47;;
8580;SDS011;4328;48.622;9.230;2023-03-14T02:53:13;0.63;;;0.40;;
8580;SDS011;4328;48.622;9.230;2023-03-14T02:55:44;0.70;;;0.70;;
8580;SDS011;4328;48.622;9.230;2023-03-14T02:58:11;0.50;;;0.50;;
8580;SDS011;4328;48.622;9.230;2023-03-14T03:00:37;0.50;;;0.50;;
8580;SDS011;4328;48.622;9.230;2023-03-14T03:03:05;0.40;;;0.40;;
8580;SDS011;4328;48.622;9.230;2023-03-14T03:05:31;0.40;;;0.40;;
8580;SDS011;4328;48.622;9.230;2023-03-14T03:07:58;3.40;;;0.50;;
8580;SDS011;4328;48.622;9.230;2023-03-14T03:10:25;0.40;;;0.40;;
8580;SDS011;4328;48.622;9.230;2023-03-14T03:12:51;0.40;;;0.40;;
8580;SDS011;4328;48.622;9.230;2023-03-14T03:15:18;0.60;;;0.60;;
8580;SDS011;4328;48.622;9.230;2023-03-14T03:17:44;0.97;;;0.50;;
8580;SDS011;4328;48.622;9.230;2023-03-14T03:20:12;1.07;;;0.43;;
8580;SDS011;4328;48.622;9.230;2023-03-14T03:22:39;0.60;;;0.60;;
8580;SDS011;4328;48.622;9.230;2023-03-14T03:25:06;0.40;;;0.40;;
8580;SDS011;4328;48.622;9.230;2023-03-14T03:27:33;0.40;;;0.40;;
8580;SDS011;4328;48.622;9.230;2023-03-14T03:30:00;0.53;;;0.40;;
8580;SDS011;4328;48.622;9.230;2023-03-14T03:32:26;0.40;;;0.40;;
8580;SDS011;4328;48.622;9.230;2023-03-14T03:34:53;0.47;;;0.47;;
8580;SDS011;4328;48.622;9.230;2023-03-14T03:37:20;0.60;;;0.60;;
8580;SDS011;4328;48.622;9.230;2023-03-14T03:39:49;0.40;;;0.40;;
8580;SDS011;4328;48.622;9.230;2023-03-14T03:42:15;0.50;;;0.50;;
8580;SDS011;4328;48.622;9.230;2023-03-14T03:44:42;0.50;;;0.50;;
8580;SDS011;4328;48.622;9.230;2023-03-14T03:47:08;1.17;;;0.50;;
8580;SDS011;4328;48.622;9.230;2023-03-14T03:49:34;0.43;;;0.43;;
8580;SDS011;4328;48.622;9.230;2023-03-14T03:52:01;0.83;;;0.60;;
8580;SDS011;4328;48.622;9.230;2023-03-14T03:54:29;1.13;;;0.70;;
8580;SDS011;4328;48.622;9.230;2023-03-14T03:56:55;0.50;;;0.50;;
8580;SDS011;4328;48.622;9.230;2023-03-14T03:59:21;0.40;;;0.40;;
8580;SDS011;4328;48.622;9.230;2023-03-14T04:01:48;0.50;;;0.50;;
8580;SDS011;4328;48.622;9.230;2023-03-14T04:04:14;1.33;;;0.50;;
8580;SDS011;4328;48.622;9.230;2023-03-14T04:06:41;0.40;;;0.40;;
8580;SDS011;4328;48.622;9.230;2023-03-14T04:09:07;2.63;;;2.43;;
8580;SDS011;4328;48.622;9.230;2023-03-14T04:11:35;0.70;;;0.70;;
8580;SDS011;4328;48.622;9.230;2023-03-14T04:14:02;0.83;;;0.53;;
8580;SDS011;4328;48.622;9.230;2023-03-14T04:16:28;0.57;;;0.53;;
8580;SDS011;4328;48.622;9.230;2023-03-14T04:18:56;0.53;;;0.53;;
8580;SDS011;4328;48.622;9.230;2023-03-14T04:21:23;1.50;;;0.60;;
8580;SDS011;4328;48.622;9.230;2023-03-14T04:23:49;1.03;;;0.50;;
8580;SDS011;4328;48.622;9.230;2023-03-14T04:26:16;1.27;;;0.60;;
8580;SDS011;4328;48.622;9.230;2023-03-14T04:28:43;3.47;;;0.60;;
8580;SDS011;4328;48.622;9.230;2023-03-14T04:31:10;1.27;;;0.60;;
8580;SDS011;4328;48.622;9.230;2023-03-14T04:33:37;1.27;;;0.70;;
8580;SDS011;4328;48.622;9.230;2023-03-14T04:36:04;1.43;;;0.70;;
8580;SDS011;4328;48.622;9.230;2023-03-14T04:38:31;0.90;;;0.70;;
8580;SDS011;4328;48.622;9.230;2023-03-14T04:40:57;1.27;;;0.60;;
8580;SDS011;4328;48.622;9.230;2023-03-14T04:43:24;1.77;;;0.90;;
8580;SDS011;4328;48.622;9.230;2023-03-14T04:45:52;0.80;;;0.70;;
8580;SDS011;4328;48.622;9.230;2023-03-14T04:48:19;0.90;;;0.67;;
8580;SDS011;4328;48.622;9.230;2023-03-14T04:50:45;1.07;;;0.60;;
8580;SDS011;4328;48.622;9.230;2023-03-14T04:53:12;1.43;;;0.73;;
8580;SDS011;4328;48.622;9.230;2023-03-14T04:55:38;1.20;;;0.67;;
8580;SDS011;4328;48.622;9.230;2023-03-14T04:58:05;1.17;;;0.70;;
8580;SDS011;4328;48.622;9.230;2023-03-14T05:00:31;5.53;;;0.80;;
8580;SDS011;4328;48.622;9.230;2023-03-14T05:02:59;0.87;;;0.60;;
8580;SDS011;4328;48.622;9.230;2023-03-14T05:05:25;1.17;;;0.63;;
8580;SDS011;4328;48.622;9.230;2023-03-14T05:07:52;2.93;;;0.60;;
8580;SDS011;4328;48.622;9.230;2023-03-14T05:10:18;1.50;;;0.80;;
8580;SDS011;4328;48.622;9.230;2023-03-14T05:12:44;3.67;;;0.80;;
8580;SDS011;4328;48.622;9.230;2023-03-14T05:15:11;3.70;;;0.70;;
8580;SDS011;4328;48.622;9.230;2023-03-14T05:17:37;1.17;;;0.77;;
8580;SDS011;4328;48.622;9.230;2023-03-14T05:20:06;0.83;;;0.77;;
8580;SDS011;4328;48.622;9.230;2023-03-14T05:22:34;1.30;;;0.67;;
8580;SDS011;4328;48.622;9.230;2023-03-14T05:25:00;0.47;;;0.47;;
8580;SDS011;4328;48.622;9.230;2023-03-14T05:27:27;0.60;;;0.60;;
8580;SDS011;4328;48.622;9.230;2023-03-14T05:29:53;1.00;;;0.60;;
8580;SDS011;4328;48.622;9.230;2023-03-14T05:32:20;1.23;;;0.63;;
8580;SDS011;4328;48.622;9.230;2023-03-14T05:34:46;0.90;;;0.60;;
8580;SDS011;4328;48.622;9.230;2023-03-14T05:37:14;1.73;;;0.67;;
8580;SDS011;4328;48.622;9.230;2023-03-14T05:39:40;1.53;;;0.60;;
8580;SDS011;4328;48.622;9.230;2023-03-14T05:42:07;0.53;;;0.53;;
8580;SDS011;4328;48.622;9.230;2023-03-14T05:44:33;2.17;;;0.60;;
8580;SDS011;4328;48.622;9.230;2023-03-14T05:46:59;2.10;;;0.70;;
8580;SDS011;4328;48.622;9.230;2023-03-14T05:49:26;1.70;;;0.60;;
8580;SDS011;4328;48.622;9.230;2023-03-14T05:51:52;2.97;;;0.70;;
8580;SDS011;4328;48.622;9.230;2023-03-14T05:54:20;2.13;;;0.67;;
8580;SDS011;4328;48.622;9.230;2023-03-14T05:56:46;0.87;;;0.83;;
8580;SDS011;4328;48.622;9.230;2023-03-14T05:59:13;1.17;;;0.70;;
8580;SDS011;4328;48.622;9.230;2023-03-14T06:01:39;2.10;;;0.97;;
8580;SDS011;4328;48.622;9.230;2023-03-14T06:04:06;2.77;;;0.90;;
8580;SDS011;4328;48.622;9.230;2023-03-14T06:06:32;2.93;;;0.90;;
8580;SDS011;4328;48.622;9.230;2023-03-14T06:08:59;1.60;;;0.90;;
8580;SDS011;4328;48.622;9.230;2023-03-14T06:11:27;1.20;;;0.63;;
8580;SDS011;4328;48.622;9.230;2023-03-14T06:13:53;1.63;;;0.60;;
8580;SDS011;4328;48.622;9.230;2023-03-14T06:16:19;3.27;;;0.90;;
8580;SDS011;4328;48.622;9.230;2023-03-14T06:18:46;1.30;;;0.90;;
8580;SDS011;4328;48.622;9.230;2023-03-14T06:21:14;2.20;;;0.80;;
8580;SDS011;4328;48.622;9.230;2023-03-14T06:23:40;4.30;;;0.80;;
8580;SDS011;4328;48.622;9.230;2023-03-14T06:26:06;4.77;;;0.70;;
8580;SDS011;4328;48.622;9.230;2023-03-14T06:28:34;2.43;;;0.87;;
8580;SDS011;4328;48.622;9.230;2023-03-14T06:31:01;1.40;;;0.80;;
8580;SDS011;4328;48.622;9.230;2023-03-14T06:33:27;4.40;;;1.00;;
8580;SDS011;4328;48.622;9.230;2023-03-14T06:35:54;1.67;;;0.90;;
8580;SDS011;4328;48.622;9.230;2023-03-14T06:38:20;1.90;;;0.80;;
8580;SDS011;4328;48.622;9.230;2023-03-14T06:40:47;2.67;;;0.90;;
8580;SDS011;4328;48.622;9.230;2023-03-14T06:43:13;2.20;;;1.07;;
8580;SDS011;4328;48.622;9.230;2023-03-14T06:45:41;7.17;;;1.83;;
8580;SDS011;4328;48.622;9.230;2023-03-14T06:48:07;3.63;;;0.80;;
8580;SDS011;4328;48.622;9.230;2023-03-14T06:50:34;2.03;;;1.20;;
8580;SDS011;4328;48.622;9.230;2023-03-14T06:53:00;1.20;;;1.07;;
8580;SDS011;4328;48.622;9.230;2023-03-14T06:55:27;3.40;;;0.90;;
8580;SDS011;4328;48.622;9.230;2023-03-14T06:57:53;5.10;;;1.30;;
8580;SDS011;4328;48.622;9.230;2023-03-14T07:00:19;3.53;;;0.70;;
8580;SDS011;4328;48.622;9.230;2023-03-14T07:02:47;1.63;;;1.00;;
8580;SDS011;4328;48.622;9.230;2023-03-14T07:05:14;2.47;;;0.93;;
8580;SDS011;4328;48.622;9.230;2023-03-14T07:07:40;3.23;;;0.83;;
8580;SDS011;4328;48.622;9.230;2023-03-14T07:10:07;1.47;;;0.70;;
8580;SDS011;4328;48.622;9.230;2023-03-14T07:12:34;1.70;;;0.70;;
8580;SDS011;4328;48.622;9.230;2023-03-14T07:15:00;2.10;;;0.70;;
8580;SDS011;4328;48.622;9.230;2023-03-14T07:17:27;3.23;;;0.63;;
8580;SDS011;4328;48.622;9.230;2023-03-14T07:19:55;0.90;;;0.90;;
8580;SDS011;4328;48.622;9.230;2023-03-14T07:22:21;0.83;;;0.80;;
8580;SDS011;4328;48.622;9.230;2023-03-14T07:24:48;2.40;;;1.10;;
8580;SDS011;4328;48.622;9.230;2023-03-14T07:27:14;2.80;;;1.50;;
8580;SDS011;4328;48.622;9.230;2023-03-14T07:29:40;1.30;;;1.20;;
8580;SDS011;4328;48.622;9.230;2023-03-14T07:32:07;2.40;;;1.30;;
8580;SDS011;4328;48.622;9.230;2023-03-14T07:34:34;1.57;;;0.83;;
8580;SDS011;4328;48.622;9.230;2023-03-14T07:37:02;2.60;;;1.10;;
8580;SDS011;4328;48.622;9.230;2023-03-14T07:39:30;1.30;;;1.13;;
8580;SDS011;4328;48.622;9.230;2023-03-14T07:41:56;2.10;;;0.90;;
8580;SDS011;4328;48.622;9.230;2023-03-14T07:44:22;2.53;;;0.57;;
8580;SDS011;4328;48.622;9.230;2023-03-14T07:46:49;0.87;;;0.57;;
8580;SDS011;4328;48.622;9.230;2023-03-14T07:49:15;2.27;;;0.70;;
8580;SDS011;4328;48.622;9.230;2023-03-14T07:51:42;0.93;;;0.50;;
8580;SDS011;4328;48.622;9.230;2023-03-14T07:54:10;1.30;;;0.50;;
8580;SDS011;4328;48.622;9.230;2023-03-14T07:56:36;0.77;;;0.40;;
8580;SDS011;4328;48.622;9.230;2023-03-14T07:59:03;0.50;;;0.50;;
8580;SDS011;4328;48.622;9.230;2023-03-14T08:01:29;0.60;;;0.57;;
8580;SDS011;4328;48.622;9.230;2023-03-14T08:03:56;0.40;;;0.40;;
8580;SDS011;4328;48.622;9.230;2023-03-14T08:06:22;0.97;;;0.63;;
8580;SDS011;4328;48.622;9.230;2023-03-14T08:08:48;0.60;;;0.50;;
8580;SDS011;4328;48.622;9.230;2023-03-14T08:11:16;2.93;;;0.60;;
8580;SDS011;4328;48.622;9.230;2023-03-14T08:13:43;0.73;;;0.70;;
8580;SDS011;4328;48.622;9.230;2023-03-14T08:16:14;1.70;;;0.70;;
8580;SDS011;4328;48.622;9.230;2023-03-14T08:18:40;1.17;;;0.50;;
8580;SDS011;4328;48.622;9.230;2023-03-14T08:21:07;1.20;;;0.53;;
8580;SDS011;4328;48.622;9.230;2023-03-14T08:23:33;0.93;;;0.57;;
8580;SDS011;4328;48.622;9.230;2023-03-14T08:26:00;1.13;;;0.50;;
8580;SDS011;4328;48.622;9.230;2023-03-14T08:28:28;0.40;;;0.40;;
8580;SDS011;4328;48.622;9.230;2023-03-14T08:30:57;0.83;;;0.40;;
8580;SDS011;4328;48.622;9.230;2023-03-14T08:33:24;0.60;;;0.60;;
8580;SDS011;4328;48.622;9.230;2023-03-14T08:35:51;0.93;;;0.47;;
8580;SDS011;4328;48.622;9.230;2023-03-14T08:38:18;2.00;;;0.80;;
8580;SDS011;4328;48.622;9.230;2023-03-14T08:40:44;1.13;;;0.40;;
8580;SDS011;4328;48.622;9.230;2023-03-14T08:43:10;1.73;;;0.50;;
8580;SDS011;4328;48.622;9.230;2023-03-14T08:45:38;0.70;;;0.40;;
8580;SDS011;4328;48.622;9.230;2023-03-14T08:48:05;0.87;;;0.50;;
8580;SDS011;4328;48.622;9.230;2023-03-14T08:50:31;0.30;;;0.30;;
8580;SDS011;4328;48.622;9.230;2023-03-14T08:52:58;1.77;;;0.40;;
8580;SDS011;4328;48.622;9.230;2023-03-14T08:55:25;1.37;;;0.40;;
8580;SDS011;4328;48.622;9.230;2023-03-14T08:57:52;0.50;;;0.30;;
8580;SDS011;4328;48.622;9.230;2023-03-14T09:00:19;0.87;;;0.50;;
8580;SDS011;4328;48.622;9.230;2023-03-14T09:02:47;2.00;;;0.50;;
8580;SDS011;4328;48.622;9.230;2023-03-14T09:05:13;0.63;;;0.40;;
8580;SDS011;4328;48.622;9.230;2023-03-14T09:07:40;0.90;;;0.40;;
8580;SDS011;4328;48.622;9.230;2023-03-14T09:10:07;0.20;;;0.20;;
8580;SDS011;4328;48.622;9.230;2023-03-14T09:12:33;1.47;;;0.40;;
8580;SDS011;4328;48.622;9.230;2023-03-14T09:15:00;1.13;;;0.23;;
8580;SDS011;4328;48.622;9.230;2023-03-14T09:17:26;0.60;;;0.30;;
8580;SDS011;4328;48.622;9.230;2023-03-14T09:19:54;0.40;;;0.30;;
8580;SDS011;4328;48.622;9.230;2023-03-14T09:22:20;1.03;;;0.37;;
8580;SDS011;4328;48.622;9.230;2023-03-14T09:24:47;0.87;;;0.43;;
8580;SDS011;4328;48.622;9.230;2023-03-14T09:27:13;1.10;;;0.30;;
8580;SDS011;4328;48.622;9.230;2023-03-14T09:29:40;0.93;;;0.50;;
8580;SDS011;4328;48.622;9.230;2023-03-14T09:32:06;0.63;;;0.20;;
8580;SDS011;4328;48.622;9.230;2023-03-14T09:34:33;0.30;;;0.30;;
8580;SDS011;4328;48.622;9.230;2023-03-14T09:37:01;1.80;;;0.30;;
8580;SDS011;4328;48.622;9.230;2023-03-14T09:39:27;0.40;;;0.40;;
8580;SDS011;4328;48.622;9.230;2023-03-14T09:41:54;0.87;;;0.53;;
8580;SDS011;4328;48.622;9.230;2023-03-14T09:44:24;0.27;;;0.27;;
8580;SDS011;4328;48.622;9.230;2023-03-14T09:46:52;0.30;;;0.30;;
8580;SDS011;4328;48.622;9.230;2023-03-14T09:49:20;0.70;;;0.30;;
8580;SDS011;4328;48.622;9.230;2023-03-14T09:51:47;0.30;;;0.30;;
8580;SDS011;4328;48.622;9.230;2023-03-14T09:54:21;0.30;;;0.30;;
8580;SDS011;4328;48.622;9.230;2023-03-14T09:56:50;0.40;;;0.20;;
8580;SDS011;4328;48.622;9.230;2023-03-14T09:59:17;1.50;;;0.40;;
8580;SDS011;4328;48.622;9.230;2023-03-14T10:01:44;1.37;;;0.40;;
8580;SDS011;4328;48.622;9.230;2023-03-14T10:04:12;0.20;;;0.20;;
8580;SDS011;4328;48.622;9.230;2023-03-14T10:06:39;0.63;;;0.33;;
8580;SDS011;4328;48.622;9.230;2023-03-14T10:09:05;1.63;;;0.50;;
8580;SDS011;4328;48.622;9.230;2023-03-14T10:11:33;1.03;;;0.50;;
8580;SDS011;4328;48.622;9.230;2023-03-14T10:14:04;1.27;;;0.57;;
8580;SDS011;4328;48.622;9.230;2023-03-14T10:16:32;0.63;;;0.30;;
8580;SDS011;4328;48.622;9.230;2023-03-14T10:19:02;0.40;;;0.37;;
8580;SDS011;4328;48.622;9.230;2023-03-14T10:21:30;0.57;;;0.37;;
8580;SDS011;4328;48.622;9.230;2023-03-14T10:24:06;0.60;;;0.40;;
8580;SDS011;4328;48.622;9.230;2023-03-14T10:26:34;0.30;;;0.30;;
8580;SDS011;4328;48.622;9.230;2023-03-14T10:29:02;0.43;;;0.27;;
8580;SDS011;4328;48.622;9.230;2023-03-14T10:31:29;0.57;;;0.40;;
8580;SDS011;4328;48.622;9.230;2023-03-14T10:34:14;0.30;;;0.30;;
8580;SDS011;4328;48.622;9.230;2023-03-14T10:36:41;0.33;;;0.33;;
8580;SDS011;4328;48.622;9.230;2023-03-14T10:39:21;0.30;;;0.30;;
8580;SDS011;4328;48.622;9.230;2023-03-14T10:41:50;0.40;;;0.40;;
8580;SDS011;4328;48.622;9.230;2023-03-14T10:44:19;0.50;;;0.30;;
8580;SDS011;4328;48.622;9.230;2023-03-14T10:46:47;0.30;;;0.30;;
8580;SDS011;4328;48.622;9.230;2023-03-14T10:49:25;0.37;;;0.37;;
8580;SDS011;4328;48.622;9.230;2023-03-14T10:51:52;1.47;;;0.40;;
8580;SDS011;4328;48.622;9.230;2023-03-14T10:54:19;0.77;;;0.37;;
8580;SDS011;4328;48.622;9.230;2023-03-14T10:56:50;0.30;;;0.30;;
8580;SDS011;4328;48.622;9.230;2023-03-14T10:59:23;0.30;;;0.30;;
8580;SDS011;4328;48.622;9.230;2023-03-14T11:01:51;1.10;;;0.30;;
8580;SDS011;4328;48.622;9.230;2023-03-14T11:04:22;0.20;;;0.20;;
8580;SDS011;4328;48.622;9.230;2023-03-14T11:06:51;0.20;;;0.17;;
8580;SDS011;4328;48.622;9.230;2023-03-14T11:09:21;0.10;;;0.10;;
8580;SDS011;4328;48.622;9.230;2023-03-14T11:11:49;0.47;;;0.40;;
8580;SDS011;4328;48.622;9.230;2023-03-14T11:14:18;0.20;;;0.20;;
8580;SDS011;4328;48.622;9.230;2023-03-14T11:16:50;0.57;;;0.30;;
8580;SDS011;4328;48.622;9.230;2023-03-14T11:22:03;0.20;;;0.20;;
8580;SDS011;4328;48.622;9.230;2023-03-14T11:24:39;0.20;;;0.10;;
8580;SDS011;4328;48.622;9.230;2023-03-14T11:27:07;0.40;;;0.33;;
8580;SDS011;4328;48.622;9.230;2023-03-14T11:29:37;0.67;;;0.10;;
8580;SDS011;4328;48.622;9.230;2023-03-14T11:32:10;0.37;;;0.20;;
8580;SDS011;4328;48.622;9.230;2023-03-14T11:34:39;0.20;;;0.20;;
8580;SDS011;4328;48.622;9.230;2023-03-14T11:37:11;0.20;;;0.20;;
8580;SDS011;4328;48.622;9.230;2023-03-14T11:39:40;1.27;;;0.20;;
8580;SDS011;4328;48.622;9.230;2023-03-14T11:42:08;0.17;;;0.17;;
8580;SDS011;4328;48.622;9.230;2023-03-14T11:44:37;0.20;;;0.20;;
8580;SDS011;4328;48.622;9.230;2023-03-14T11:47:05;0.20;;;0.20;;
8580;SDS011;4328;48.622;9.230;2023-03-14T11:49:34;0.20;;;0.20;;
8580;SDS011;4328;48.622;9.230;2023-03-14T11:52:05;0.87;;;0.30;;
8580;SDS011;4328;48.622;9.230;2023-03-14T11:54:34;0.20;;;0.20;;
8580;SDS011;4328;48.622;9.230;2023-03-14T11:57:02;0.43;;;0.23;;
8580;SDS011;4328;48.622;9.230;2023-03-14T11:59:31;0.10;;;0.10;;
8580;SDS011;4328;48.622;9.230;2023-03-14T12:01:58;0.20;;;0.20;;
8580;SDS011;4328;48.622;9.230;2023-03-14T12:04:46;0.30;;;0.30;;
8580;SDS011;4328;48.622;9.230;2023-03-14T12:07:18;0.27;;;0.27;;
8580;SDS011;4328;48.622;9.230;2023-03-14T12:09:45;0.20;;;0.20;;
8580;SDS011;4328;48.622;9.230;2023-03-14T12:12:13;0.20;;;0.20;;
8580;SDS011;4328;48.622;9.230;2023-03-14T12:14:44;0.30;;;0.30;;
8580;SDS011;4328;48.622;9.230;2023-03-14T12:17:18;0.63;;;0.40;;
8580;SDS011;4328;48.622;9.230;2023-03-14T12:19:46;0.30;;;0.20;;
8580;SDS011;4328;48.622;9.230;2023-03-14T12:22:18;0.30;;;0.30;;
8580;SDS011;4328;48.622;9.230;2023-03-14T12:24:47;0.30;;;0.30;;
8580;SDS011;4328;48.622;9.230;2023-03-14T12:27:37;0.53;;;0.10;;
8580;SDS011;4328;48.622;9.230;2023-03-14T12:30:04;0.30;;;0.30;;
8580;SDS011;4328;48.622;9.230;2023-03-14T12:32:41;1.00;;;0.20;;
8580;SDS011;4328;48.622;9.230;2023-03-14T12:37:49;0.10;;;0.10;;
8580;SDS011;4328;48.622;9.230;2023-03-14T12:40:18;0.23;;;0.23;;
8580;SDS011;4328;48.622;9.230;2023-03-14T12:42:51;0.30;;;0.30;;
8580;SDS011;4328;48.622;9.230;2023-03-14T12:45:23;0.20;;;0.20;;
8580;SDS011;4328;48.622;9.230;2023-03-14T12:47:51;1.03;;;0.40;;
8580;SDS011;4328;48.622;9.230;2023-03-14T12:50:19;0.30;;;0.20;;
8580;SDS011;4328;48.622;9.230;2023-03-14T12:52:53;0.20;;;0.20;;
8580;SDS011;4328;48.622;9.230;2023-03-14T12:55:20;0.40;;;0.30;;
8580;SDS011;4328;48.622;9.230;2023-03-14T12:57:50;1.00;;;0.30;;
8580;SDS011;4328;48.622;9.230;2023-03-14T13:00:19;0.30;;;0.20;;
8580;SDS011;4328;48.622;9.230;2023-03-14T13:02:48;1.27;;;0.30;;
8580;SDS011;4328;48.622;9.230;2023-03-14T13:05:16;0.30;;;0.30;;
8580;SDS011;4328;48.622;9.230;2023-03-14T13:08:03;0.57;;;0.30;;
8580;SDS011;4328;48.622;9.230;2023-03-14T13:10:30;0.50;;;0.50;;
8580;SDS011;4328;48.622;9.230;2023-03-14T13:13:09;0.27;;;0.27;;
8580;SDS011;4328;48.622;9.230;2023-03-14T13:15:38;2.60;;;0.53;;
8580;SDS011;4328;48.622;9.230;2023-03-14T13:18:10;0.20;;;0.20;;
8580;SDS011;4328;48.622;9.230;2023-03-14T13:20:37;0.73;;;0.30;;
8580;SDS011;4328;48.622;9.230;2023-03-14T13:23:04;1.40;;;0.30;;
8580;SDS011;4328;48.622;9.230;2023-03-14T13:25:32;2.30;;;0.40;;
8580;SDS011;4328;48.622;9.230;2023-03-14T13:27:59;0.90;;;0.50;;
8580;SDS011;4328;48.622;9.230;2023-03-14T13:30:26;0.50;;;0.30;;
8580;SDS011;4328;48.622;9.230;2023-03-14T13:32:53;1.00;;;0.40;;
8580;SDS011;4328;48.622;9.230;2023-03-14T13:35:22;0.70;;;0.50;;
8580;SDS011;4328;48.622;9.230;2023-03-14T13:37:56;0.77;;;0.60;;
8580;SDS011;4328;48.622;9.230;2023-03-14T13:40:28;0.93;;;0.50;;
8580;SDS011;4328;48.622;9.230;2023-03-14T13:42:59;0.77;;;0.50;;
8580;SDS011;4328;48.622;9.230;2023-03-14T13:45:25;0.80;;;0.50;;
8580;SDS011;4328;48.622;9.230;2023-03-14T13:47:52;0.60;;;0.57;;
8580;SDS011;4328;48.622;9.230;2023-03-14T13:50:18;1.17;;;0.50;;
8580;SDS011;4328;48.622;9.230;2023-03-14T13:52:46;0.97;;;0.50;;
8580;SDS011;4328;48.622;9.230;2023-03-14T13:55:14;1.30;;;0.60;;
8580;SDS011;4328;48.622;9.230;2023-03-14T13:57:45;0.80;;;0.40;;
8580;SDS011;4328;48.622;9.230;2023-03-14T14:00:18;1.10;;;0.60;;
8580;SDS011;4328;48.622;9.230;2023-03-14T14:02:46;1.63;;;0.70;;
8580;SDS011;4328;48.622;9.230;2023-03-14T14:05:13;1.70;;;0.50;;
8580;SDS011;4328;48.622;9.230;2023-03-14T14:07:40;1.53;;;0.70;;
8580;SDS011;4328;48.622;9.230;2023-03-14T14:10:10;1.20;;;0.63;;
8580;SDS011;4328;48.622;9.230;2023-03-14T14:12:38;0.83;;;0.63;;
8580;SDS011;4328;48.622;9.230;2023-03-14T14:15:06;3.37;;;0.80;;
8580;SDS011;4328;48.622;9.230;2023-03-14T14:17:34;0.70;;;0.60;;
8580;SDS011;4328;48.622;9.230;2023-03-14T14:20:02;1.47;;;0.70;;
8580;SDS011;4328;48.622;9.230;2023-03-14T14:22:30;0.60;;;0.60;;
8580;SDS011;4328;48.622;9.230;2023-03-14T14:24:56;0.87;;;0.60;;
8580;SDS011;4328;48.622;9.230;2023-03-14T14:27:27;0.47;;;0.47;;
8580;SDS011;4328;48.622;9.230;2023-03-14T14:29:56;2.33;;;0.60;;
8580;SDS011;4328;48.622;9.230;2023-03-14T14:32:23;1.53;;;0.57;;
8580;SDS011;4328;48.622;9.230;2023-03-14T14:34:56;1.37;;;0.40;;
8580;SDS011;4328;48.622;9.230;2023-03-14T14:37:23;1.43;;;0.50;;
8580;SDS011;4328;48.622;9.230;2023-03-14T14:39:51;1.10;;;0.50;;
8580;SDS011;4328;48.622;9.230;2023-03-14T14:42:19;0.90;;;0.47;;
8580;SDS011;4328;48.622;9.230;2023-03-14T14:44:48;1.10;;;0.60;;
8580;SDS011;4328;48.622;9.230;2023-03-14T14:47:17;1.67;;;0.50;;
8580;SDS011;4328;48.622;9.230;2023-03-14T14:49:44;0.60;;;0.60;;
8580;SDS011;4328;48.622;9.230;2023-03-14T14:52:13;0.73;;;0.60;;
8580;SDS011;4328;48.622;9.230;2023-03-14T14:54:42;0.70;;;0.50;;
8580;SDS011;4328;48.622;9.230;2023-03-14T14:57:12;1.07;;;0.60;;
8580;SDS011;4328;48.622;9.230;2023-03-14T14:59:42;1.20;;;0.70;;
8580;SDS011;4328;48.622;9.230;2023-03-14T15:02:27;0.77;;;0.50;;
8580;SDS011;4328;48.622;9.230;2023-03-14T15:04:54;1.20;;;0.80;;
8580;SDS011;4328;48.622;9.230;2023-03-14T15:07:21;1.60;;;0.70;;
8580;SDS011;4328;48.622;9.230;2023-03-14T15:09:47;1.00;;;0.70;;
8580;SDS011;4328;48.622;9.230;2023-03-14T15:12:13;1.63;;;0.70;;
8580;SDS011;4328;48.622;9.230;2023-03-14T15:14:40;1.10;;;0.40;;
8580;SDS011;4328;48.622;9.230;2023-03-14T15:17:08;1.03;;;0.70;;
8580;SDS011;4328;48.622;9.230;2023-03-14T15:19:38;5.77;;;0.53;;
8580;SDS011;4328;48.622;9.230;2023-03-14T15:22:07;1.27;;;0.60;;
8580;SDS011;4328;48.622;9.230;2023-03-14T15:24:35;2.33;;;0.50;;